首页
METAR-TAF:

METAR-TAF

机场 :

哈米德·卡尔扎伊国际机场

喀布尔, 阿富汗

纬度: 34-38N, 经度: 069-12E, 海拔: 1789米

当前天气观测

该预报发布于46分钟前的13:50 UTC
风速1节,风向多变
温度 15°C
湿度 13%
气压 1021 hPa
能见度10公里或以上
1500米以下无云,无积雨云

METAR: OAKB 231350Z VRB01KT CAVOK 15/M13 Q1021 NOSIG RMK A3016 BLU BLU

时间: 19:06 (14:36 UTC)

预报

该预报发布于3小时和31分钟前的11:05 UTC
预报有效从23日的 12点(UTC)到 24日的 12点(UTC)
风速12节,风向东转东北
能见度10公里或以上
1500米以下无云,无积雨云
成为
从 23日的 14点(UTC)到 23日的 16点(UTC)
风速2节,风向多变
几率 30%
从 24日的 01点(UTC)到 24日的 05点(UTC)
能見度: 5000
成为
从 24日的 08点(UTC)到 24日的 10点(UTC)
风速12节,风向东转东北
散云层高于10000英尺

TAF: OAKB 231105Z 2312/2412 06012KT CAVOK BECMG 2314/2316 VRB02KT PROB30 2401/2405 5000 FU BECMG 2408/2410 06012KT SCT100

超过4000个机场的气象观测和天气预报(METAR&TAF报告)。

可查询的气象台以黄色和红色小点在地图上表示。

将鼠标移到小点上方,可查看气象台名称。

然后点击查看天气观测和预报。

如需切换地图:点击带黑十字的绿色按钮放大地图;点击带横线的绿色按钮缩小地图;或者点击绿色箭头查看邻近地区的地图。


METAR-TAF: